createdAt,value
2022-09-11T00:00:05.433Z,82.20
2022-09-11T00:05:10.259Z,81.91
2022-09-11T00:10:07.272Z,82.29
2022-09-11T00:15:05.513Z,82.26
2022-09-11T00:20:03.554Z,82.39
2022-09-11T00:25:00.919Z,81.18
2022-09-11T00:29:57.621Z,81.69
2022-09-11T00:34:55.006Z,80.13
2022-09-11T00:39:54.592Z,80.02
2022-09-11T00:45:00.300Z,80.25
2022-09-11T00:50:00.924Z,80.40
2022-09-11T00:55:00.074Z,80.64
2022-09-11T00:59:58.393Z,79.75
2022-09-11T01:05:00.305Z,79.54
2022-09-11T01:09:58.661Z,80.62
2022-09-11T01:14:58.284Z,79.58
2022-09-11T01:20:04.725Z,79.79
2022-09-11T01:25:08.587Z,79.40
2022-09-11T01:30:11.498Z,78.83
2022-09-11T01:35:12.198Z,78.50
2022-09-11T01:40:12.975Z,78.34
2022-09-11T01:45:13.479Z,78.07
2022-09-11T01:50:13.921Z,78.58
2022-09-11T01:55:16.373Z,79.45
2022-09-11T02:00:14.329Z,78.09
2022-09-11T02:05:23.064Z,80.25
2022-09-11T02:10:22.920Z,79.86
2022-09-11T02:15:24.673Z,78.00
2022-09-11T02:20:21.508Z,78.44
2022-09-11T02:25:18.112Z,78.27
2022-09-11T02:30:15.604Z,77.00
2022-09-11T02:35:15.873Z,77.62
2022-09-11T02:40:28.366Z,77.29
2022-09-11T02:45:32.828Z,77.40
2022-09-11T02:50:33.822Z,77.03
2022-09-11T02:55:41.111Z,77.50
2022-09-11T03:00:38.674Z,77.57
2022-09-11T03:05:36.596Z,78.11
2022-09-11T03:10:33.861Z,77.43
2022-09-11T03:15:30.977Z,77.93
2022-09-11T03:20:27.814Z,78.43
2022-09-11T03:25:27.658Z,77.12
2022-09-11T03:30:26.290Z,77.28
2022-09-11T03:35:23.237Z,77.98
2022-09-11T03:40:20.078Z,78.60
2022-09-11T03:45:17.749Z,79.05
2022-09-11T03:50:14.689Z,79.93
2022-09-11T03:55:11.566Z,80.44
2022-09-11T04:00:09.464Z,79.94
2022-09-11T04:05:27.274Z,80.05
2022-09-11T04:10:24.396Z,80.27
2022-09-11T04:15:21.763Z,79.64
2022-09-11T04:20:18.748Z,80.43
2022-09-11T04:25:17.118Z,80.51
2022-09-11T04:30:14.171Z,79.64
2022-09-11T04:35:11.038Z,78.98
2022-09-11T04:40:18.188Z,78.04
2022-09-11T04:45:15.607Z,78.15
2022-09-11T04:50:12.786Z,77.93
2022-09-11T04:55:17.233Z,77.72
2022-09-11T05:00:17.767Z,76.32
2022-09-11T05:05:14.607Z,76.82
2022-09-11T05:10:14.491Z,76.44
2022-09-11T05:15:18.921Z,77.16
2022-09-11T05:20:16.603Z,77.09
2022-09-11T05:25:15.588Z,76.79
2022-09-11T05:30:19.125Z,76.65
2022-09-11T05:35:18.622Z,77.03
2022-09-11T05:40:15.935Z,75.61
2022-09-11T05:45:12.958Z,75.12
2022-09-11T05:50:16.953Z,74.44
2022-09-11T05:55:15.814Z,75.15
2022-09-11T06:00:20.290Z,74.64
2022-09-11T06:05:20.325Z,74.86
2022-09-11T06:10:19.788Z,73.82
2022-09-11T06:15:36.266Z,72.60
2022-09-11T06:20:33.335Z,73.07
2022-09-11T06:25:31.773Z,71.04
2022-09-11T06:30:31.523Z,72.54
2022-09-11T06:35:29.446Z,72.83
2022-09-11T06:47:03.607Z,69.98
2022-09-11T06:52:02.238Z,69.04
2022-09-11T06:57:01.151Z,68.76
2022-09-11T07:02:09.086Z,67.86
2022-09-11T07:07:06.773Z,69.25
2022-09-11T07:12:05.521Z,68.85
2022-09-11T07:17:03.400Z,67.41
2022-09-11T07:22:05.154Z,65.60
2022-09-11T07:27:04.513Z,64.18
2022-09-11T07:32:05.304Z,63.82
2022-09-11T07:37:02.357Z,61.25
2022-09-11T07:41:59.480Z,61.81
2022-09-11T07:47:00.417Z,61.83
2022-09-11T07:51:58.817Z,61.45
2022-09-11T07:57:06.749Z,61.59
2022-09-11T08:02:05.161Z,61.58
2022-09-11T08:07:02.055Z,61.72
2022-09-11T08:12:03.919Z,60.54
2022-09-11T08:17:02.595Z,60.62
2022-09-11T08:22:01.883Z,59.61
2022-09-11T08:27:05.443Z,59.25
2022-09-11T08:32:07.697Z,57.12
2022-09-11T08:37:05.472Z,58.28
2022-09-11T08:42:07.637Z,57.82
2022-09-11T08:47:10.148Z,56.09
2022-09-11T08:52:12.309Z,54.61
2022-09-11T08:57:13.210Z,54.33
2022-09-11T09:02:21.343Z,50.14
2022-09-11T09:07:23.429Z,50.20
2022-09-11T09:12:25.792Z,50.76
2022-09-11T09:17:26.390Z,49.91
2022-09-11T09:22:26.887Z,47.94
2022-09-11T09:27:25.414Z,46.53
2022-09-11T09:32:25.626Z,47.65
2022-09-11T09:37:25.679Z,46.04
2022-09-11T09:42:49.946Z,46.00
2022-09-11T09:47:48.437Z,43.89
2022-09-11T09:52:45.636Z,43.26
2022-09-11T09:57:42.871Z,41.51
2022-09-11T10:02:41.069Z,40.61
2022-09-11T10:07:45.812Z,41.70
2022-09-11T10:12:44.832Z,40.02
2022-09-11T10:17:42.321Z,39.42
2022-09-11T10:22:39.414Z,40.00
2022-09-11T10:27:40.367Z,39.16
2022-09-11T10:32:40.971Z,39.66
2022-09-11T10:37:38.592Z,38.98
2022-09-11T10:42:37.276Z,39.81
2022-09-11T10:47:33.884Z,39.51
2022-09-11T10:52:30.536Z,38.77
2022-09-11T10:57:43.182Z,38.14
2022-09-11T11:02:41.340Z,37.88
2022-09-11T11:07:56.119Z,37.94
2022-09-11T11:13:04.506Z,37.24
2022-09-11T11:18:11.436Z,37.61
2022-09-11T11:23:23.642Z,37.00
2022-09-11T11:28:47.333Z,37.72
2022-09-11T11:33:55.325Z,36.42
2022-09-11T11:38:59.776Z,35.26
2022-09-11T11:43:59.065Z,36.09
2022-09-11T11:48:59.116Z,35.89
2022-09-11T11:53:59.661Z,36.65
2022-09-11T11:59:00.234Z,34.67
2022-09-11T12:04:02.183Z,34.69
2022-09-11T12:09:01.790Z,35.24
2022-09-11T12:13:59.934Z,35.81
2022-09-11T12:19:04.434Z,34.56
2022-09-11T12:24:17.473Z,32.52
2022-09-11T12:29:32.728Z,30.55
2022-09-11T12:34:51.533Z,31.03
2022-09-11T12:39:52.610Z,32.48
2022-09-11T12:44:56.609Z,32.51
2022-09-11T12:49:55.970Z,31.94
2022-09-11T12:55:22.182Z,31.71
2022-09-11T13:07:29.684Z,31.96
2022-09-11T13:12:56.574Z,31.03
2022-09-11T13:18:06.745Z,30.83
2022-09-11T13:23:21.897Z,29.92
2022-09-11T13:28:27.108Z,31.74
2022-09-11T13:40:06.128Z,31.22
2022-09-11T13:45:45.325Z,30.03
2022-09-11T13:51:06.650Z,31.48
2022-09-11T13:56:06.645Z,30.51
2022-09-11T14:01:14.266Z,31.29
2022-09-11T14:06:22.452Z,30.88
2022-09-11T14:11:31.368Z,30.34
2022-09-11T14:16:36.435Z,29.83
2022-09-11T14:27:36.225Z,30.39
2022-09-11T14:38:56.509Z,30.41
2022-09-11T14:44:17.317Z,30.64
2022-09-11T14:50:00.503Z,29.95
2022-09-11T14:55:01.114Z,29.55
2022-09-11T14:59:58.800Z,28.04
2022-09-11T15:05:15.375Z,27.89
2022-09-11T15:10:13.132Z,28.00
2022-09-11T15:15:10.082Z,28.81
2022-09-11T15:20:10.239Z,28.72
2022-09-11T15:25:07.401Z,27.82
2022-09-11T15:30:08.210Z,28.32
2022-09-11T15:35:05.644Z,28.39
2022-09-11T15:40:03.406Z,28.58
2022-09-11T15:45:01.278Z,29.04
2022-09-11T15:50:01.320Z,29.57
2022-09-11T15:54:58.086Z,29.58
2022-09-11T15:59:54.833Z,29.79
2022-09-11T16:04:55.322Z,30.48
2022-09-11T16:09:53.876Z,30.35
2022-09-11T16:14:54.457Z,30.42
2022-09-11T16:19:51.317Z,30.46
2022-09-11T16:24:48.061Z,30.43
2022-09-11T16:35:02.552Z,30.65
2022-09-11T16:40:02.157Z,30.96
2022-09-11T16:44:59.840Z,31.18
2022-09-11T16:50:12.099Z,31.09
2022-09-11T16:55:09.547Z,31.30
2022-09-11T17:00:08.603Z,31.58
2022-09-11T17:05:05.530Z,31.59
2022-09-11T17:16:02.170Z,32.20
2022-09-11T17:21:09.197Z,32.54
2022-09-11T17:26:10.501Z,33.18
2022-09-11T17:31:09.239Z,33.42
2022-09-11T17:36:06.678Z,34.42
2022-09-11T17:41:16.928Z,34.54
2022-09-11T17:46:26.212Z,35.41
2022-09-11T17:51:24.505Z,36.22
2022-09-11T17:56:23.213Z,36.86
2022-09-11T18:01:26.630Z,37.57
2022-09-11T18:06:25.492Z,38.01
2022-09-11T18:11:39.150Z,38.57
2022-09-11T18:16:37.081Z,39.30
2022-09-11T18:21:37.098Z,39.65
2022-09-11T18:26:37.775Z,39.96
2022-09-11T18:31:40.616Z,39.04
2022-09-11T18:36:38.365Z,39.26
2022-09-11T18:41:35.639Z,39.39
2022-09-11T18:46:32.906Z,39.36
2022-09-11T18:51:33.280Z,39.91
2022-09-11T18:56:31.649Z,39.44
2022-09-11T19:01:29.146Z,39.75
2022-09-11T19:06:27.961Z,40.63
2022-09-11T19:11:25.893Z,41.67
2022-09-11T19:16:23.263Z,42.11
2022-09-11T19:21:21.703Z,41.50
2022-09-11T19:26:25.280Z,40.81
2022-09-11T19:31:24.337Z,42.45
2022-09-11T19:36:23.207Z,43.34
2022-09-11T19:41:20.987Z,43.24
2022-09-11T19:46:18.920Z,44.22
2022-09-11T19:51:17.622Z,44.13
2022-09-11T19:56:17.098Z,43.80
2022-09-11T20:01:14.728Z,44.33
2022-09-11T20:06:12.302Z,46.02
2022-09-11T20:11:09.873Z,46.34
2022-09-11T20:16:07.948Z,45.86
2022-09-11T20:21:05.776Z,46.64
2022-09-11T20:26:08.786Z,47.17
2022-09-11T20:31:12.387Z,47.46
2022-09-11T20:36:09.151Z,48.10
2022-09-11T20:41:06.836Z,48.89
2022-09-11T20:46:04.105Z,47.77
2022-09-11T20:51:02.628Z,47.85
2022-09-11T20:56:02.904Z,46.91
2022-09-11T21:01:01.206Z,47.71
2022-09-11T21:05:58.227Z,47.96
2022-09-11T21:10:55.612Z,48.88
2022-09-11T21:15:52.417Z,49.06
2022-09-11T21:20:55.548Z,49.19
2022-09-11T21:25:52.899Z,49.36
2022-09-11T21:30:53.563Z,50.25
2022-09-11T21:35:51.881Z,50.04
2022-09-11T21:40:50.790Z,49.92
2022-09-11T21:45:48.984Z,50.48
2022-09-11T21:50:46.576Z,50.04
2022-09-11T21:55:44.705Z,50.59
2022-09-11T22:00:43.235Z,51.39
2022-09-11T22:05:40.349Z,51.72
2022-09-11T22:10:41.644Z,52.63
2022-09-11T22:15:39.619Z,53.17
2022-09-11T22:20:37.608Z,53.76
2022-09-11T22:25:36.266Z,53.86
2022-09-11T22:30:33.800Z,54.28
2022-09-11T22:35:33.624Z,54.49
2022-09-11T22:40:30.875Z,54.64
2022-09-11T22:45:27.871Z,55.29
2022-09-11T22:50:25.657Z,55.71
2022-09-11T22:55:22.338Z,56.02
2022-09-11T23:00:19.248Z,57.09
2022-09-11T23:05:33.912Z,57.55
2022-09-11T23:10:31.237Z,57.37
2022-09-11T23:15:28.070Z,58.08
2022-09-11T23:20:24.636Z,58.12
2022-09-11T23:25:21.831Z,58.29
2022-09-11T23:30:22.059Z,58.88
2022-09-11T23:35:18.651Z,59.65
2022-09-11T23:40:15.364Z,60.20
2022-09-11T23:45:12.497Z,60.55
2022-09-11T23:50:10.174Z,60.75
2022-09-11T23:55:07.168Z,60.90
